createdAt,value
2022-08-17T00:02:26.366Z,17.50
2022-08-17T00:04:54.781Z,17.47
2022-08-17T00:07:22.433Z,17.44
2022-08-17T00:09:49.191Z,17.44
2022-08-17T00:12:42.579Z,17.43
2022-08-17T00:15:05.623Z,17.44
2022-08-17T00:17:35.755Z,17.46
2022-08-17T00:20:03.992Z,17.43
2022-08-17T00:22:35.673Z,17.38
2022-08-17T00:25:07.529Z,17.38
2022-08-17T00:27:36.390Z,17.37
2022-08-17T00:30:06.041Z,17.36
2022-08-17T00:33:12.594Z,17.39
2022-08-17T00:35:39.677Z,17.37
2022-08-17T00:38:09.378Z,17.32
2022-08-17T00:40:46.138Z,17.27
2022-08-17T00:43:28.860Z,17.22
2022-08-17T00:45:56.096Z,17.18
2022-08-17T00:48:29.101Z,17.22
2022-08-17T00:51:15.794Z,17.24
2022-08-17T00:53:51.038Z,17.17
2022-08-17T00:56:27.231Z,17.12
2022-08-17T00:58:55.273Z,17.09
2022-08-17T01:01:23.009Z,17.07
2022-08-17T01:03:59.661Z,17.12
2022-08-17T01:06:28.300Z,17.23
2022-08-17T01:08:57.927Z,17.30
2022-08-17T01:11:26.714Z,17.29
2022-08-17T01:13:53.439Z,17.22
2022-08-17T01:16:24.525Z,17.16
2022-08-17T01:19:01.185Z,17.13
2022-08-17T01:21:30.977Z,17.11
2022-08-17T01:23:57.818Z,17.14
2022-08-17T01:26:25.279Z,17.18
2022-08-17T01:28:55.516Z,17.17
2022-08-17T01:31:28.389Z,17.21
2022-08-17T01:33:57.832Z,17.25
2022-08-17T01:36:24.795Z,17.22
2022-08-17T01:38:51.696Z,17.21
2022-08-17T01:41:21.633Z,17.17
2022-08-17T01:43:56.436Z,17.15
2022-08-17T01:46:30.421Z,17.19
2022-08-17T01:48:58.217Z,17.21
2022-08-17T01:51:32.021Z,17.13
2022-08-17T01:54:06.217Z,17.04
2022-08-17T01:56:35.522Z,16.98
2022-08-17T01:59:03.617Z,16.98
2022-08-17T02:01:33.245Z,16.96
2022-08-17T02:04:01.973Z,16.93
2022-08-17T02:06:31.608Z,17.00
2022-08-17T02:09:17.054Z,17.10
2022-08-17T02:11:44.876Z,17.12
2022-08-17T02:14:13.590Z,17.20
2022-08-17T02:16:41.472Z,17.26
2022-08-17T02:19:12.502Z,17.28
2022-08-17T02:21:41.401Z,17.23
2022-08-17T02:24:12.927Z,17.26
2022-08-17T02:26:39.868Z,17.24
2022-08-17T02:29:07.123Z,17.16
2022-08-17T02:31:35.202Z,17.12
2022-08-17T02:34:04.448Z,17.17
2022-08-17T02:36:34.619Z,17.17
2022-08-17T02:39:06.695Z,17.19
2022-08-17T02:41:34.045Z,17.21
2022-08-17T02:44:00.851Z,17.23
2022-08-17T02:46:29.860Z,17.23
2022-08-17T02:48:57.484Z,17.20
2022-08-17T02:51:25.518Z,17.19
2022-08-17T02:53:52.773Z,17.20
2022-08-17T02:56:39.898Z,17.22
2022-08-17T02:59:06.754Z,17.20
2022-08-17T03:01:33.734Z,17.20
2022-08-17T03:04:00.623Z,17.19
2022-08-17T03:06:28.699Z,17.14
2022-08-17T03:08:55.393Z,17.07
2022-08-17T03:11:23.227Z,17.05
2022-08-17T03:13:50.548Z,17.00
2022-08-17T03:16:17.423Z,16.95
2022-08-17T03:18:44.361Z,16.96
2022-08-17T03:21:11.174Z,17.00
2022-08-17T03:23:41.625Z,16.99
2022-08-17T03:26:15.391Z,16.98
2022-08-17T03:28:43.100Z,17.00
2022-08-17T03:31:09.951Z,17.01
2022-08-17T03:33:36.927Z,17.05
2022-08-17T03:36:04.157Z,17.05
2022-08-17T03:38:39.213Z,17.02
2022-08-17T03:41:06.994Z,16.98
2022-08-17T03:43:34.195Z,16.93
2022-08-17T03:46:27.939Z,16.89
2022-08-17T03:49:24.436Z,16.87
2022-08-17T03:52:11.137Z,16.90
2022-08-17T03:54:57.128Z,16.87
2022-08-17T03:57:24.205Z,16.85
2022-08-17T03:59:52.466Z,16.86
2022-08-17T04:02:29.642Z,16.89
2022-08-17T04:04:57.655Z,16.93
2022-08-17T04:07:27.628Z,16.96
2022-08-17T04:09:54.697Z,16.98
2022-08-17T04:12:23.448Z,16.99
2022-08-17T04:14:53.223Z,17.00
2022-08-17T04:17:26.258Z,16.97
2022-08-17T04:19:54.352Z,16.97
2022-08-17T04:22:31.290Z,17.00
2022-08-17T04:25:05.244Z,17.02
2022-08-17T04:27:32.148Z,17.11
2022-08-17T04:29:58.885Z,17.19
2022-08-17T04:33:05.527Z,17.27
2022-08-17T04:35:18.134Z,17.33
2022-08-17T04:37:44.979Z,17.40
2022-08-17T04:40:30.752Z,17.46
2022-08-17T04:43:14.902Z,17.53
2022-08-17T04:45:56.042Z,17.58
2022-08-17T04:48:29.844Z,17.68
2022-08-17T04:51:10.871Z,17.79
2022-08-17T04:53:40.356Z,17.90
2022-08-17T04:56:11.796Z,17.99
2022-08-17T04:58:45.209Z,18.10
2022-08-17T05:01:12.361Z,18.21
2022-08-17T05:03:39.652Z,18.28
2022-08-17T05:06:06.940Z,18.30
2022-08-17T05:08:34.067Z,18.32
2022-08-17T05:11:01.604Z,18.36
2022-08-17T05:13:29.468Z,18.38
2022-08-17T05:15:59.834Z,18.46
2022-08-17T05:18:29.214Z,18.57
2022-08-17T05:20:56.978Z,18.67
2022-08-17T05:23:26.574Z,18.82
2022-08-17T05:26:02.559Z,19.02
2022-08-17T05:28:30.809Z,19.17
2022-08-17T05:31:00.744Z,19.31
2022-08-17T05:33:31.329Z,19.44
2022-08-17T05:35:59.727Z,19.55
2022-08-17T05:38:28.839Z,19.67
2022-08-17T05:40:56.739Z,19.83
2022-08-17T05:43:30.435Z,20.01
2022-08-17T05:46:04.076Z,20.14
2022-08-17T05:48:40.912Z,20.19
2022-08-17T05:51:45.605Z,20.18
2022-08-17T05:54:22.531Z,20.17
2022-08-17T05:57:11.086Z,20.20
2022-08-17T06:00:00.828Z,20.23
2022-08-17T06:02:56.467Z,20.25
2022-08-17T06:05:35.500Z,20.29
2022-08-17T06:08:17.294Z,20.31
2022-08-17T06:10:53.639Z,20.33
2022-08-17T06:13:44.901Z,20.32
2022-08-17T06:16:33.720Z,20.32
2022-08-17T06:19:25.466Z,20.31
2022-08-17T06:21:54.403Z,20.33
2022-08-17T06:24:28.504Z,20.32
2022-08-17T06:27:06.887Z,20.32
2022-08-17T06:29:56.365Z,20.31
2022-08-17T06:32:24.657Z,20.31
2022-08-17T06:34:52.923Z,20.31
2022-08-17T06:37:48.502Z,20.32
2022-08-17T06:40:30.670Z,20.31
2022-08-17T06:43:25.737Z,20.32
2022-08-17T06:46:23.353Z,20.32
2022-08-17T06:48:59.402Z,20.40
2022-08-17T06:51:29.601Z,20.47
2022-08-17T06:54:10.821Z,20.54
2022-08-17T06:56:52.921Z,20.59
2022-08-17T06:59:25.872Z,20.66
2022-08-17T07:02:04.795Z,20.71
2022-08-17T07:04:34.858Z,20.76
2022-08-17T07:07:27.164Z,20.81
2022-08-17T07:09:59.242Z,20.85
2022-08-17T07:12:37.952Z,20.89
2022-08-17T07:15:08.100Z,20.93
2022-08-17T07:17:46.975Z,21.01
2022-08-17T07:20:22.349Z,21.14
2022-08-17T07:23:15.012Z,21.39
2022-08-17T07:25:41.862Z,21.71
2022-08-17T07:28:08.584Z,22.00
2022-08-17T07:30:48.726Z,22.17
2022-08-17T07:33:27.055Z,22.22
2022-08-17T07:35:57.681Z,22.34
2022-08-17T07:38:28.118Z,22.45
2022-08-17T07:41:00.798Z,22.59
2022-08-17T07:43:40.093Z,22.76
2022-08-17T07:46:40.978Z,22.81
2022-08-17T07:49:12.010Z,22.96
2022-08-17T07:51:52.602Z,23.11
2022-08-17T07:54:26.970Z,23.26
2022-08-17T07:56:55.494Z,23.35
2022-08-17T07:59:39.154Z,23.34
2022-08-17T08:02:33.695Z,23.34
2022-08-17T08:05:12.396Z,23.32
2022-08-17T08:07:50.628Z,23.27
2022-08-17T08:10:42.714Z,23.24
2022-08-17T08:13:19.808Z,23.16
2022-08-17T08:15:54.227Z,23.12
2022-08-17T08:18:55.755Z,23.09
2022-08-17T08:21:54.557Z,23.05
2022-08-17T08:24:33.382Z,22.97
2022-08-17T08:27:21.940Z,22.95
2022-08-17T08:29:53.313Z,23.01
2022-08-17T08:32:20.366Z,23.05
2022-08-17T08:35:03.007Z,23.05
2022-08-17T08:37:43.758Z,23.05
2022-08-17T08:40:19.991Z,23.04
2022-08-17T08:43:22.266Z,23.07
2022-08-17T08:45:55.988Z,23.12
2022-08-17T08:48:56.563Z,23.17
2022-08-17T08:51:27.842Z,23.18
2022-08-17T08:53:57.567Z,23.23
2022-08-17T08:56:32.225Z,23.24
2022-08-17T08:59:07.272Z,23.26
2022-08-17T09:01:44.406Z,23.27
2022-08-17T09:04:26.526Z,23.27
2022-08-17T09:07:18.554Z,23.29
2022-08-17T09:10:04.549Z,23.31
2022-08-17T09:13:28.143Z,23.35
2022-08-17T09:16:03.473Z,23.43
2022-08-17T09:19:00.795Z,23.58
2022-08-17T09:21:33.949Z,23.80
2022-08-17T09:24:20.748Z,24.03
2022-08-17T09:27:18.810Z,24.51
2022-08-17T09:29:50.900Z,24.95
2022-08-17T09:32:24.897Z,25.34
2022-08-17T09:35:02.179Z,25.56
2022-08-17T09:37:37.164Z,25.70
2022-08-17T09:40:09.758Z,25.76
2022-08-17T09:42:50.780Z,25.83
2022-08-17T09:45:31.167Z,25.91
2022-08-17T09:48:11.797Z,25.82
2022-08-17T09:51:04.518Z,25.70
2022-08-17T09:53:36.725Z,25.65
2022-08-17T09:56:16.002Z,25.54
2022-08-17T09:59:08.509Z,25.50
2022-08-17T10:01:43.101Z,25.43
2022-08-17T10:04:32.310Z,25.49
2022-08-17T10:07:17.300Z,25.54
2022-08-17T10:09:55.173Z,25.57
2022-08-17T10:12:29.958Z,25.60
2022-08-17T10:15:15.345Z,25.68
2022-08-17T10:18:03.514Z,25.77
2022-08-17T10:20:45.556Z,25.78
2022-08-17T10:23:39.709Z,25.69
2022-08-17T10:26:18.633Z,25.61
2022-08-17T10:28:56.857Z,25.70
2022-08-17T10:31:45.534Z,25.72
2022-08-17T10:34:48.695Z,25.80
2022-08-17T10:38:00.314Z,25.92
2022-08-17T10:40:55.616Z,26.03
2022-08-17T10:44:35.419Z,26.09
2022-08-17T10:46:55.965Z,26.15
2022-08-17T10:49:29.066Z,26.19
2022-08-17T10:52:03.297Z,26.31
2022-08-17T10:54:35.467Z,26.41
2022-08-17T10:57:02.993Z,26.49
2022-08-17T10:59:35.739Z,26.47
2022-08-17T11:02:14.659Z,26.44
2022-08-17T11:04:59.792Z,26.60
2022-08-17T11:07:57.969Z,26.58
2022-08-17T11:10:52.278Z,26.61
2022-08-17T11:13:48.086Z,26.68
2022-08-17T11:16:50.405Z,26.74
2022-08-17T11:19:43.049Z,26.76
2022-08-17T11:22:33.412Z,26.87
2022-08-17T11:25:31.109Z,26.94
2022-08-17T11:28:13.418Z,26.99
2022-08-17T11:30:46.475Z,27.10
2022-08-17T11:33:33.673Z,27.23
2022-08-17T11:36:23.068Z,27.23
2022-08-17T11:39:17.767Z,27.21
2022-08-17T11:41:50.653Z,27.27
2022-08-17T11:44:39.532Z,27.27
2022-08-17T11:48:23.647Z,27.24
2022-08-17T11:51:17.840Z,27.41
2022-08-17T11:53:45.531Z,27.46
2022-08-17T11:56:31.437Z,27.48
2022-08-17T11:59:00.340Z,27.50
2022-08-17T12:01:28.686Z,27.55
2022-08-17T12:04:22.460Z,27.56
2022-08-17T12:07:00.469Z,27.34
2022-08-17T12:09:31.871Z,27.26
2022-08-17T12:12:14.350Z,27.18
2022-08-17T12:15:09.713Z,27.15
2022-08-17T12:17:40.914Z,26.94
2022-08-17T12:20:34.291Z,26.99
2022-08-17T12:23:33.667Z,26.96
2022-08-17T12:26:13.281Z,27.16
2022-08-17T12:28:46.319Z,26.94
2022-08-17T12:31:24.358Z,26.86
2022-08-17T12:33:51.564Z,26.96
2022-08-17T12:36:24.688Z,27.03
2022-08-17T12:39:14.369Z,27.04
2022-08-17T12:41:46.234Z,27.08
2022-08-17T12:44:22.885Z,27.25
2022-08-17T12:47:21.943Z,27.47
2022-08-17T12:49:54.826Z,27.56
2022-08-17T12:52:24.678Z,27.51
2022-08-17T12:55:18.244Z,27.54
2022-08-17T12:57:48.973Z,27.33
2022-08-17T13:00:30.011Z,27.22
2022-08-17T13:03:35.723Z,27.10
2022-08-17T13:06:08.641Z,26.76
2022-08-17T13:08:42.454Z,26.46
2022-08-17T13:11:18.469Z,26.21
2022-08-17T13:13:54.561Z,26.08
2022-08-17T13:16:27.454Z,25.91
2022-08-17T13:19:09.343Z,25.81
2022-08-17T13:21:37.735Z,25.64
2022-08-17T13:24:10.277Z,25.55
2022-08-17T13:26:37.118Z,25.51
2022-08-17T13:29:33.161Z,25.48
2022-08-17T13:32:13.430Z,25.44
2022-08-17T13:35:08.305Z,25.43
2022-08-17T13:37:40.720Z,25.41
2022-08-17T13:40:09.591Z,25.53
2022-08-17T13:42:50.215Z,25.75
2022-08-17T13:45:39.304Z,25.91
2022-08-17T13:48:16.088Z,25.85
2022-08-17T13:51:03.608Z,25.91
2022-08-17T13:53:36.342Z,25.92
2022-08-17T13:56:37.140Z,25.93
2022-08-17T13:59:10.969Z,25.97
2022-08-17T14:01:43.560Z,26.03
2022-08-17T14:04:12.732Z,26.12
2022-08-17T14:06:54.204Z,26.29
2022-08-17T14:09:37.407Z,26.42
2022-08-17T14:12:10.008Z,26.53
2022-08-17T14:14:37.483Z,26.51
2022-08-17T14:17:05.136Z,26.35
2022-08-17T14:19:35.753Z,26.20
2022-08-17T14:22:04.572Z,26.16
2022-08-17T14:24:41.272Z,26.22
2022-08-17T14:27:17.383Z,26.34
2022-08-17T14:29:44.666Z,26.35
2022-08-17T14:32:24.203Z,26.23
2022-08-17T14:34:52.075Z,26.11
2022-08-17T14:37:20.663Z,26.02
2022-08-17T14:39:47.891Z,25.92
2022-08-17T14:42:17.135Z,25.90
2022-08-17T14:44:43.941Z,25.98
2022-08-17T14:47:14.512Z,26.04
2022-08-17T14:49:41.951Z,25.97
2022-08-17T14:52:12.175Z,25.92
2022-08-17T14:54:43.745Z,25.92
2022-08-17T14:57:25.843Z,26.01
2022-08-17T14:59:59.765Z,26.08
2022-08-17T15:02:29.663Z,26.14
2022-08-17T15:05:05.503Z,26.21
2022-08-17T15:07:32.367Z,26.23
2022-08-17T15:10:01.730Z,26.28
2022-08-17T15:12:33.161Z,26.29
2022-08-17T15:15:05.708Z,26.23
2022-08-17T15:17:44.737Z,26.17
2022-08-17T15:20:18.693Z,26.19
2022-08-17T15:22:49.267Z,26.21
2022-08-17T15:25:18.351Z,26.23
2022-08-17T15:27:45.185Z,26.23
2022-08-17T15:30:12.858Z,26.21
2022-08-17T15:32:50.819Z,26.25
2022-08-17T15:35:27.547Z,26.24
2022-08-17T15:38:01.626Z,26.25
2022-08-17T15:40:36.676Z,26.27
2022-08-17T15:43:10.341Z,26.28
2022-08-17T15:45:38.180Z,26.24
2022-08-17T15:48:05.331Z,26.20
2022-08-17T15:50:32.215Z,26.21
2022-08-17T15:53:01.072Z,26.19
2022-08-17T15:55:30.394Z,26.15
2022-08-17T15:57:57.762Z,26.09
2022-08-17T16:00:27.735Z,25.87
2022-08-17T16:03:46.297Z,25.69
2022-08-17T16:05:43.076Z,25.42
2022-08-17T16:08:10.521Z,25.31
2022-08-17T16:10:37.548Z,25.17
2022-08-17T16:13:04.625Z,25.05
2022-08-17T16:15:31.814Z,24.96
2022-08-17T16:17:59.313Z,24.86
2022-08-17T16:20:27.082Z,24.83
2022-08-17T16:22:54.975Z,24.53
2022-08-17T16:25:38.887Z,24.54
2022-08-17T16:28:17.426Z,24.43
2022-08-17T16:30:44.957Z,24.46
2022-08-17T16:33:13.285Z,24.48
2022-08-17T16:35:41.530Z,24.49
2022-08-17T16:38:09.295Z,24.50
2022-08-17T16:40:36.443Z,24.46
2022-08-17T16:43:09.968Z,24.42
2022-08-17T16:45:39.763Z,24.37
2022-08-17T16:48:08.106Z,24.21
2022-08-17T16:50:36.013Z,24.15
2022-08-17T16:53:09.956Z,24.09
2022-08-17T16:55:38.098Z,24.06
2022-08-17T16:58:08.359Z,24.04
2022-08-17T17:00:36.914Z,23.99
2022-08-17T17:03:19.817Z,23.94
2022-08-17T17:05:55.269Z,23.83
2022-08-17T17:08:46.287Z,23.78
2022-08-17T17:11:47.640Z,23.75
2022-08-17T17:14:24.855Z,23.67
2022-08-17T17:17:03.265Z,23.64
2022-08-17T17:19:37.769Z,23.63
2022-08-17T17:22:12.828Z,23.58
2022-08-17T17:24:47.052Z,23.54
2022-08-17T17:27:29.783Z,23.48
2022-08-17T17:30:03.460Z,23.42
2022-08-17T17:32:37.481Z,23.38
2022-08-17T17:35:10.314Z,23.34
2022-08-17T17:37:39.528Z,23.27
2022-08-17T17:40:15.864Z,23.21
2022-08-17T17:42:44.571Z,23.15
2022-08-17T17:45:22.709Z,23.10
2022-08-17T17:47:50.225Z,22.98
2022-08-17T17:50:19.405Z,22.85
2022-08-17T17:52:57.119Z,22.80
2022-08-17T17:55:59.649Z,22.82
2022-08-17T17:58:57.321Z,22.80
2022-08-17T18:01:24.241Z,22.76
2022-08-17T18:04:21.160Z,22.73
2022-08-17T18:07:11.920Z,22.67
2022-08-17T18:10:29.611Z,22.60
2022-08-17T18:13:09.517Z,22.51
2022-08-17T18:16:00.347Z,22.38
2022-08-17T18:18:39.682Z,22.30
2022-08-17T18:21:18.905Z,22.23
2022-08-17T18:23:48.499Z,22.18
2022-08-17T18:26:33.672Z,22.10
2022-08-17T18:29:11.066Z,22.06
2022-08-17T18:31:37.782Z,22.00
2022-08-17T18:37:27.269Z,21.86
2022-08-17T18:39:54.664Z,21.82
2022-08-17T18:42:27.013Z,21.82
2022-08-17T18:44:55.459Z,21.81
2022-08-17T18:47:25.641Z,21.78
2022-08-17T18:49:57.009Z,21.76
2022-08-17T18:52:33.275Z,21.74
2022-08-17T18:55:13.847Z,21.68
2022-08-17T18:57:51.897Z,21.62
2022-08-17T19:00:40.670Z,21.56
2022-08-17T19:03:17.267Z,21.55
2022-08-17T19:05:54.144Z,21.55
2022-08-17T19:08:20.988Z,21.54
2022-08-17T19:10:58.280Z,21.51
2022-08-17T19:13:40.996Z,21.52
2022-08-17T19:16:18.001Z,21.52
2022-08-17T19:19:04.941Z,21.51
2022-08-17T19:21:40.983Z,21.47
2022-08-17T19:24:13.767Z,21.44
2022-08-17T19:26:56.329Z,21.43
2022-08-17T19:29:34.563Z,21.45
2022-08-17T19:32:02.022Z,21.42
2022-08-17T19:34:33.499Z,21.40
2022-08-17T19:37:07.010Z,21.36
2022-08-17T19:39:51.485Z,21.28
2022-08-17T19:42:21.271Z,21.18
2022-08-17T19:45:03.473Z,21.07
2022-08-17T19:47:55.409Z,20.97
2022-08-17T19:50:32.470Z,20.93
2022-08-17T19:53:19.188Z,20.94
2022-08-17T19:55:55.957Z,21.03
2022-08-17T19:58:22.906Z,21.05
2022-08-17T20:00:52.530Z,21.02
2022-08-17T20:03:45.677Z,20.98
2022-08-17T20:06:14.195Z,20.97
2022-08-17T20:08:58.327Z,20.95
2022-08-17T20:11:40.601Z,20.95
2022-08-17T20:14:23.957Z,20.93
2022-08-17T20:16:51.202Z,20.94
2022-08-17T20:19:51.565Z,20.94
2022-08-17T20:22:58.564Z,21.00
2022-08-17T20:25:46.034Z,20.92
2022-08-17T20:28:21.516Z,20.86
2022-08-17T20:30:48.534Z,20.91
2022-08-17T20:33:41.834Z,20.92
2022-08-17T20:36:15.395Z,20.88
2022-08-17T20:38:48.097Z,20.93
2022-08-17T20:41:26.407Z,20.94
2022-08-17T20:43:55.767Z,20.96
2022-08-17T20:46:56.001Z,20.94
2022-08-17T20:49:40.908Z,20.88
2022-08-17T20:52:31.128Z,20.80
2022-08-17T20:54:58.047Z,20.74
2022-08-17T20:57:31.034Z,20.72
2022-08-17T21:00:00.839Z,20.67
2022-08-17T21:02:28.711Z,20.66
2022-08-17T21:04:56.606Z,20.63
2022-08-17T21:07:28.673Z,20.57
2022-08-17T21:10:15.782Z,20.53
2022-08-17T21:12:52.961Z,20.50
2022-08-17T21:15:47.954Z,20.46
2022-08-17T21:18:22.709Z,20.42
2022-08-17T21:21:08.413Z,20.39
2022-08-17T21:23:44.449Z,20.35
2022-08-17T21:26:32.106Z,20.32
2022-08-17T21:29:30.144Z,20.32
2022-08-17T21:32:03.961Z,20.35
2022-08-17T21:35:10.745Z,20.36
2022-08-17T21:37:43.460Z,20.37
2022-08-17T21:40:10.357Z,20.34
2022-08-17T21:42:47.227Z,20.31
2022-08-17T21:45:36.591Z,20.27
2022-08-17T21:48:14.786Z,20.22
2022-08-17T21:50:45.162Z,20.19
2022-08-17T21:53:25.412Z,20.16
2022-08-17T21:55:54.542Z,20.10
2022-08-17T21:58:43.625Z,20.06
2022-08-17T22:01:29.498Z,20.03
2022-08-17T22:04:22.390Z,19.99
2022-08-17T22:06:52.403Z,19.96
2022-08-17T22:09:40.933Z,20.01
2022-08-17T22:12:12.514Z,20.03
2022-08-17T22:14:52.198Z,20.01
2022-08-17T22:17:28.164Z,19.96
2022-08-17T22:20:03.815Z,19.89
2022-08-17T22:23:02.524Z,19.85
2022-08-17T22:25:33.062Z,19.87
2022-08-17T22:28:02.167Z,19.91
2022-08-17T22:30:36.970Z,19.91
2022-08-17T22:33:42.546Z,19.81
2022-08-17T22:36:26.587Z,19.69
2022-08-17T22:39:07.852Z,19.64
2022-08-17T22:41:40.625Z,19.65
2022-08-17T22:44:33.722Z,19.64
2022-08-17T22:47:18.587Z,19.56
2022-08-17T22:49:54.222Z,19.48
2022-08-17T22:52:35.011Z,19.40
2022-08-17T22:55:27.225Z,19.37
2022-08-17T22:58:13.015Z,19.35
2022-08-17T23:00:45.858Z,19.39
2022-08-17T23:03:17.281Z,19.40
2022-08-17T23:06:01.611Z,19.38
2022-08-17T23:08:29.476Z,19.43
2022-08-17T23:10:59.696Z,19.38
2022-08-17T23:13:27.188Z,19.33
2022-08-17T23:15:53.906Z,19.30
2022-08-17T23:18:22.899Z,19.31
2022-08-17T23:20:50.150Z,19.33
2022-08-17T23:23:21.852Z,19.39
2022-08-17T23:25:50.702Z,19.43
2022-08-17T23:28:17.854Z,19.39
2022-08-17T23:30:47.684Z,19.38
2022-08-17T23:33:29.480Z,19.39
2022-08-17T23:36:00.053Z,19.40
2022-08-17T23:38:27.739Z,19.42
2022-08-17T23:40:59.301Z,19.42
2022-08-17T23:43:28.285Z,19.41
2022-08-17T23:45:58.160Z,19.42
2022-08-17T23:48:28.369Z,19.50
2022-08-17T23:51:08.550Z,19.58
2022-08-17T23:53:37.293Z,19.64
2022-08-17T23:56:09.648Z,19.64
2022-08-17T23:58:40.001Z,19.63
